sensor_id;sensor_type;location;lat;lon;timestamp;temperature;humidity
75719;DHT22;64340;48.534;-3.036;2023-07-30T00:02:16;20.30;66.40
75719;DHT22;64340;48.534;-3.036;2023-07-30T00:04:42;20.30;66.40
75719;DHT22;64340;48.534;-3.036;2023-07-30T00:07:11;20.30;66.50
75719;DHT22;64340;48.534;-3.036;2023-07-30T00:09:37;20.30;66.40
75719;DHT22;64340;48.534;-3.036;2023-07-30T00:12:10;20.30;66.50
75719;DHT22;64340;48.534;-3.036;2023-07-30T00:14:36;20.30;66.40
75719;DHT22;64340;48.534;-3.036;2023-07-30T00:17:04;20.20;66.40
75719;DHT22;64340;48.534;-3.036;2023-07-30T00:19:30;20.20;66.40
75719;DHT22;64340;48.534;-3.036;2023-07-30T00:22:01;20.20;66.50
75719;DHT22;64340;48.534;-3.036;2023-07-30T00:24:30;20.10;66.50
75719;DHT22;64340;48.534;-3.036;2023-07-30T00:26:56;20.20;66.50
75719;DHT22;64340;48.534;-3.036;2023-07-30T00:29:22;20.20;66.40
75719;DHT22;64340;48.534;-3.036;2023-07-30T00:31:47;20.10;66.50
75719;DHT22;64340;48.534;-3.036;2023-07-30T00:34:13;20.20;66.50
75719;DHT22;64340;48.534;-3.036;2023-07-30T00:36:40;20.20;66.40
75719;DHT22;64340;48.534;-3.036;2023-07-30T00:39:07;20.10;66.50
75719;DHT22;64340;48.534;-3.036;2023-07-30T00:41:32;20.20;66.50
75719;DHT22;64340;48.534;-3.036;2023-07-30T00:43:58;20.20;66.50
75719;DHT22;64340;48.534;-3.036;2023-07-30T00:46:24;20.20;66.50
75719;DHT22;64340;48.534;-3.036;2023-07-30T00:48:50;20.20;66.50
75719;DHT22;64340;48.534;-3.036;2023-07-30T00:51:16;20.20;66.50
75719;DHT22;64340;48.534;-3.036;2023-07-30T00:53:44;20.20;66.40
75719;DHT22;64340;48.534;-3.036;2023-07-30T00:56:11;20.20;66.40
75719;DHT22;64340;48.534;-3.036;2023-07-30T00:58:38;20.20;66.50
75719;DHT22;64340;48.534;-3.036;2023-07-30T01:01:03;20.10;66.50
75719;DHT22;64340;48.534;-3.036;2023-07-30T01:03:32;20.10;66.50
75719;DHT22;64340;48.534;-3.036;2023-07-30T01:05:58;20.10;66.60
75719;DHT22;64340;48.534;-3.036;2023-07-30T01:08:24;20.10;66.60
75719;DHT22;64340;48.534;-3.036;2023-07-30T01:10:50;20.10;66.50
75719;DHT22;64340;48.534;-3.036;2023-07-30T01:13:15;20.10;66.60
75719;DHT22;64340;48.534;-3.036;2023-07-30T01:15:45;20.10;66.60
75719;DHT22;64340;48.534;-3.036;2023-07-30T01:18:15;20.10;66.60
75719;DHT22;64340;48.534;-3.036;2023-07-30T01:20:41;20.10;66.60
75719;DHT22;64340;48.534;-3.036;2023-07-30T01:23:06;20.10;66.60
75719;DHT22;64340;48.534;-3.036;2023-07-30T01:25:33;20.10;66.60
75719;DHT22;64340;48.534;-3.036;2023-07-30T01:28:01;20.10;66.60
75719;DHT22;64340;48.534;-3.036;2023-07-30T01:30:32;20.10;66.60
75719;DHT22;64340;48.534;-3.036;2023-07-30T01:33:00;20.10;66.60
75719;DHT22;64340;48.534;-3.036;2023-07-30T01:35:27;20.10;66.60
75719;DHT22;64340;48.534;-3.036;2023-07-30T01:37:53;20.10;66.60
75719;DHT22;64340;48.534;-3.036;2023-07-30T01:40:19;20.10;66.60
75719;DHT22;64340;48.534;-3.036;2023-07-30T01:42:46;20.10;66.70
75719;DHT22;64340;48.534;-3.036;2023-07-30T01:45:13;20.10;66.60
75719;DHT22;64340;48.534;-3.036;2023-07-30T01:47:39;20.10;66.60
75719;DHT22;64340;48.534;-3.036;2023-07-30T01:50:05;20.10;66.60
75719;DHT22;64340;48.534;-3.036;2023-07-30T01:52:31;20.10;66.60
75719;DHT22;64340;48.534;-3.036;2023-07-30T01:54:58;20.10;66.60
75719;DHT22;64340;48.534;-3.036;2023-07-30T01:57:26;20.10;66.60
75719;DHT22;64340;48.534;-3.036;2023-07-30T01:59:52;20.10;66.60
75719;DHT22;64340;48.534;-3.036;2023-07-30T02:02:18;20.10;66.60
75719;DHT22;64340;48.534;-3.036;2023-07-30T02:04:44;20.00;66.50
75719;DHT22;64340;48.534;-3.036;2023-07-30T02:07:09;20.00;66.50
75719;DHT22;64340;48.534;-3.036;2023-07-30T02:09:41;20.00;66.60
75719;DHT22;64340;48.534;-3.036;2023-07-30T02:12:07;20.00;66.50
75719;DHT22;64340;48.534;-3.036;2023-07-30T02:14:33;20.00;66.50
75719;DHT22;64340;48.534;-3.036;2023-07-30T02:16:59;20.00;66.50
75719;DHT22;64340;48.534;-3.036;2023-07-30T02:19:25;20.00;66.50
75719;DHT22;64340;48.534;-3.036;2023-07-30T02:21:53;20.00;66.50
75719;DHT22;64340;48.534;-3.036;2023-07-30T02:24:19;20.00;66.50
75719;DHT22;64340;48.534;-3.036;2023-07-30T02:26:48;20.00;66.50
75719;DHT22;64340;48.534;-3.036;2023-07-30T02:29:14;20.00;66.50
75719;DHT22;64340;48.534;-3.036;2023-07-30T02:31:43;20.00;66.50
75719;DHT22;64340;48.534;-3.036;2023-07-30T02:34:14;20.00;66.50
75719;DHT22;64340;48.534;-3.036;2023-07-30T02:36:40;20.00;66.50
75719;DHT22;64340;48.534;-3.036;2023-07-30T02:39:06;20.00;66.50
75719;DHT22;64340;48.534;-3.036;2023-07-30T02:41:38;20.00;66.50
75719;DHT22;64340;48.534;-3.036;2023-07-30T02:44:06;20.00;66.50
75719;DHT22;64340;48.534;-3.036;2023-07-30T02:46:32;20.00;66.60
75719;DHT22;64340;48.534;-3.036;2023-07-30T02:49:02;20.00;66.60
75719;DHT22;64340;48.534;-3.036;2023-07-30T02:51:45;20.00;66.60
75719;DHT22;64340;48.534;-3.036;2023-07-30T02:54:14;20.00;66.50
75719;DHT22;64340;48.534;-3.036;2023-07-30T02:56:39;20.00;66.60
75719;DHT22;64340;48.534;-3.036;2023-07-30T02:59:05;20.00;66.60
75719;DHT22;64340;48.534;-3.036;2023-07-30T03:01:31;20.00;66.60
75719;DHT22;64340;48.534;-3.036;2023-07-30T03:03:57;20.00;66.60
75719;DHT22;64340;48.534;-3.036;2023-07-30T03:06:22;20.00;66.60
75719;DHT22;64340;48.534;-3.036;2023-07-30T03:08:48;20.00;66.60
75719;DHT22;64340;48.534;-3.036;2023-07-30T03:11:15;20.00;66.50
75719;DHT22;64340;48.534;-3.036;2023-07-30T03:13:42;20.00;66.50
75719;DHT22;64340;48.534;-3.036;2023-07-30T03:16:08;20.00;66.50
75719;DHT22;64340;48.534;-3.036;2023-07-30T03:18:36;20.00;66.60
75719;DHT22;64340;48.534;-3.036;2023-07-30T03:21:02;19.90;66.60
75719;DHT22;64340;48.534;-3.036;2023-07-30T03:23:35;19.90;66.70
75719;DHT22;64340;48.534;-3.036;2023-07-30T03:26:01;19.90;66.70
75719;DHT22;64340;48.534;-3.036;2023-07-30T03:28:28;19.90;66.60
75719;DHT22;64340;48.534;-3.036;2023-07-30T03:30:55;19.90;66.60
75719;DHT22;64340;48.534;-3.036;2023-07-30T03:33:21;19.90;66.70
75719;DHT22;64340;48.534;-3.036;2023-07-30T03:35:47;19.90;66.70
75719;DHT22;64340;48.534;-3.036;2023-07-30T03:38:13;19.90;66.70
75719;DHT22;64340;48.534;-3.036;2023-07-30T03:40:39;19.90;66.70
75719;DHT22;64340;48.534;-3.036;2023-07-30T03:43:05;19.90;66.80
75719;DHT22;64340;48.534;-3.036;2023-07-30T03:45:31;19.90;66.70
75719;DHT22;64340;48.534;-3.036;2023-07-30T03:47:58;19.90;66.80
75719;DHT22;64340;48.534;-3.036;2023-07-30T03:50:26;19.90;66.70
75719;DHT22;64340;48.534;-3.036;2023-07-30T03:52:52;19.90;66.80
75719;DHT22;64340;48.534;-3.036;2023-07-30T03:55:18;19.80;66.80
75719;DHT22;64340;48.534;-3.036;2023-07-30T03:57:44;19.80;66.80
75719;DHT22;64340;48.534;-3.036;2023-07-30T04:00:14;19.80;66.80
75719;DHT22;64340;48.534;-3.036;2023-07-30T04:02:39;19.80;66.80
75719;DHT22;64340;48.534;-3.036;2023-07-30T04:05:05;19.80;66.80
75719;DHT22;64340;48.534;-3.036;2023-07-30T04:07:31;19.80;66.80
75719;DHT22;64340;48.534;-3.036;2023-07-30T04:09:57;19.80;66.80
75719;DHT22;64340;48.534;-3.036;2023-07-30T04:12:22;19.80;66.80
75719;DHT22;64340;48.534;-3.036;2023-07-30T04:14:48;19.90;66.80
75719;DHT22;64340;48.534;-3.036;2023-07-30T04:17:14;19.80;66.80
75719;DHT22;64340;48.534;-3.036;2023-07-30T04:19:45;19.80;66.90
75719;DHT22;64340;48.534;-3.036;2023-07-30T04:22:11;19.80;66.80
75719;DHT22;64340;48.534;-3.036;2023-07-30T04:24:38;19.80;66.90
75719;DHT22;64340;48.534;-3.036;2023-07-30T04:27:07;19.80;66.90
75719;DHT22;64340;48.534;-3.036;2023-07-30T04:29:33;19.80;66.80
75719;DHT22;64340;48.534;-3.036;2023-07-30T04:32:01;19.80;66.80
75719;DHT22;64340;48.534;-3.036;2023-07-30T04:34:26;19.80;66.80
75719;DHT22;64340;48.534;-3.036;2023-07-30T04:36:55;19.80;66.80
75719;DHT22;64340;48.534;-3.036;2023-07-30T04:39:21;19.80;66.90
75719;DHT22;64340;48.534;-3.036;2023-07-30T04:41:46;19.80;66.90
75719;DHT22;64340;48.534;-3.036;2023-07-30T04:44:12;19.80;66.90
75719;DHT22;64340;48.534;-3.036;2023-07-30T04:46:38;19.70;67.00
75719;DHT22;64340;48.534;-3.036;2023-07-30T04:49:03;19.70;67.00
75719;DHT22;64340;48.534;-3.036;2023-07-30T04:51:29;19.80;67.00
75719;DHT22;64340;48.534;-3.036;2023-07-30T04:53:58;19.70;67.00
75719;DHT22;64340;48.534;-3.036;2023-07-30T04:56:24;19.70;67.00
75719;DHT22;64340;48.534;-3.036;2023-07-30T04:58:52;19.70;67.00
75719;DHT22;64340;48.534;-3.036;2023-07-30T05:01:17;19.70;67.00
75719;DHT22;64340;48.534;-3.036;2023-07-30T05:03:43;19.70;67.00
75719;DHT22;64340;48.534;-3.036;2023-07-30T05:06:09;19.70;67.00
75719;DHT22;64340;48.534;-3.036;2023-07-30T05:08:34;19.70;67.00
75719;DHT22;64340;48.534;-3.036;2023-07-30T05:11:00;19.70;67.00
75719;DHT22;64340;48.534;-3.036;2023-07-30T05:13:29;19.70;67.00
75719;DHT22;64340;48.534;-3.036;2023-07-30T05:16:15;19.70;67.00
75719;DHT22;64340;48.534;-3.036;2023-07-30T05:18:40;19.70;67.00
75719;DHT22;64340;48.534;-3.036;2023-07-30T05:21:06;19.70;67.00
75719;DHT22;64340;48.534;-3.036;2023-07-30T05:23:32;19.70;67.00
75719;DHT22;64340;48.534;-3.036;2023-07-30T05:26:01;19.70;67.00
75719;DHT22;64340;48.534;-3.036;2023-07-30T05:28:27;19.70;67.00
75719;DHT22;64340;48.534;-3.036;2023-07-30T05:30:55;19.70;66.90
75719;DHT22;64340;48.534;-3.036;2023-07-30T05:33:23;19.70;66.90
75719;DHT22;64340;48.534;-3.036;2023-07-30T05:35:55;19.80;66.90
75719;DHT22;64340;48.534;-3.036;2023-07-30T05:38:21;19.70;66.90
75719;DHT22;64340;48.534;-3.036;2023-07-30T05:40:49;19.70;66.90
75719;DHT22;64340;48.534;-3.036;2023-07-30T05:43:15;19.70;67.00
75719;DHT22;64340;48.534;-3.036;2023-07-30T05:45:42;19.70;67.00
75719;DHT22;64340;48.534;-3.036;2023-07-30T05:48:11;19.70;66.90
75719;DHT22;64340;48.534;-3.036;2023-07-30T05:50:36;19.70;66.90
75719;DHT22;64340;48.534;-3.036;2023-07-30T05:53:02;19.70;66.90
75719;DHT22;64340;48.534;-3.036;2023-07-30T05:55:30;19.70;66.90
75719;DHT22;64340;48.534;-3.036;2023-07-30T05:57:56;19.70;66.90
75719;DHT22;64340;48.534;-3.036;2023-07-30T06:00:25;19.80;66.90
75719;DHT22;64340;48.534;-3.036;2023-07-30T06:02:51;19.80;66.80
75719;DHT22;64340;48.534;-3.036;2023-07-30T06:05:22;19.70;66.90
75719;DHT22;64340;48.534;-3.036;2023-07-30T06:07:53;19.70;66.50
75719;DHT22;64340;48.534;-3.036;2023-07-30T06:10:38;19.40;67.20
75719;DHT22;64340;48.534;-3.036;2023-07-30T06:13:05;19.20;67.70
75719;DHT22;64340;48.534;-3.036;2023-07-30T06:15:37;19.10;68.00
75719;DHT22;64340;48.534;-3.036;2023-07-30T06:18:06;19.00;68.20
75719;DHT22;64340;48.534;-3.036;2023-07-30T06:20:38;19.00;68.50
75719;DHT22;64340;48.534;-3.036;2023-07-30T06:23:13;19.00;68.50
75719;DHT22;64340;48.534;-3.036;2023-07-30T06:28:20;18.90;69.00
75719;DHT22;64340;48.534;-3.036;2023-07-30T06:30:51;19.00;68.70
75719;DHT22;64340;48.534;-3.036;2023-07-30T06:33:17;19.10;68.90
75719;DHT22;64340;48.534;-3.036;2023-07-30T06:35:43;19.00;69.10
75719;DHT22;64340;48.534;-3.036;2023-07-30T06:38:09;19.10;69.80
75719;DHT22;64340;48.534;-3.036;2023-07-30T06:40:47;19.10;70.10
75719;DHT22;64340;48.534;-3.036;2023-07-30T06:43:26;19.10;69.60
75719;DHT22;64340;48.534;-3.036;2023-07-30T06:45:52;19.10;70.00
75719;DHT22;64340;48.534;-3.036;2023-07-30T06:48:21;19.10;70.00
75719;DHT22;64340;48.534;-3.036;2023-07-30T06:50:48;19.10;70.10
75719;DHT22;64340;48.534;-3.036;2023-07-30T06:53:17;19.10;69.90
75719;DHT22;64340;48.534;-3.036;2023-07-30T06:55:43;19.10;70.10
75719;DHT22;64340;48.534;-3.036;2023-07-30T06:58:11;19.00;70.10
75719;DHT22;64340;48.534;-3.036;2023-07-30T07:00:37;19.00;70.30
75719;DHT22;64340;48.534;-3.036;2023-07-30T07:03:03;19.00;70.50
75719;DHT22;64340;48.534;-3.036;2023-07-30T07:05:32;19.10;70.30
75719;DHT22;64340;48.534;-3.036;2023-07-30T07:07:58;19.00;70.40
75719;DHT22;64340;48.534;-3.036;2023-07-30T07:10:25;19.00;70.60
75719;DHT22;64340;48.534;-3.036;2023-07-30T07:12:51;19.00;70.80
75719;DHT22;64340;48.534;-3.036;2023-07-30T07:15:17;19.00;71.20
75719;DHT22;64340;48.534;-3.036;2023-07-30T07:17:42;19.10;70.90
75719;DHT22;64340;48.534;-3.036;2023-07-30T07:20:13;19.10;70.70
75719;DHT22;64340;48.534;-3.036;2023-07-30T07:22:38;19.10;70.60
75719;DHT22;64340;48.534;-3.036;2023-07-30T07:25:07;19.10;70.80
75719;DHT22;64340;48.534;-3.036;2023-07-30T07:27:43;19.20;71.10
75719;DHT22;64340;48.534;-3.036;2023-07-30T07:30:12;19.20;70.80
75719;DHT22;64340;48.534;-3.036;2023-07-30T07:32:38;19.20;70.60
75719;DHT22;64340;48.534;-3.036;2023-07-30T07:35:04;19.20;70.70
75719;DHT22;64340;48.534;-3.036;2023-07-30T07:37:33;19.20;70.70
75719;DHT22;64340;48.534;-3.036;2023-07-30T07:39:59;19.20;70.90
75719;DHT22;64340;48.534;-3.036;2023-07-30T07:42:26;19.20;71.20
75719;DHT22;64340;48.534;-3.036;2023-07-30T07:44:59;19.10;70.20
75719;DHT22;64340;48.534;-3.036;2023-07-30T07:47:25;19.10;70.90
75719;DHT22;64340;48.534;-3.036;2023-07-30T07:49:56;19.20;71.50
75719;DHT22;64340;48.534;-3.036;2023-07-30T07:52:25;19.20;71.20
75719;DHT22;64340;48.534;-3.036;2023-07-30T07:54:53;19.10;71.30
75719;DHT22;64340;48.534;-3.036;2023-07-30T07:57:19;19.10;71.50
75719;DHT22;64340;48.534;-3.036;2023-07-30T07:59:50;19.10;71.30
75719;DHT22;64340;48.534;-3.036;2023-07-30T08:02:31;19.10;71.50
75719;DHT22;64340;48.534;-3.036;2023-07-30T08:04:59;19.20;71.30
75719;DHT22;64340;48.534;-3.036;2023-07-30T08:07:28;19.30;71.60
75719;DHT22;64340;48.534;-3.036;2023-07-30T08:09:58;19.30;71.60
75719;DHT22;64340;48.534;-3.036;2023-07-30T08:12:24;19.20;72.00
75719;DHT22;64340;48.534;-3.036;2023-07-30T08:14:52;19.30;72.00
75719;DHT22;64340;48.534;-3.036;2023-07-30T08:17:21;19.30;71.60
75719;DHT22;64340;48.534;-3.036;2023-07-30T08:19:47;19.30;71.90
75719;DHT22;64340;48.534;-3.036;2023-07-30T08:22:22;19.30;71.60
75719;DHT22;64340;48.534;-3.036;2023-07-30T08:24:50;19.30;71.70
75719;DHT22;64340;48.534;-3.036;2023-07-30T08:27:20;19.40;71.30
75719;DHT22;64340;48.534;-3.036;2023-07-30T08:29:49;19.40;71.50
75719;DHT22;64340;48.534;-3.036;2023-07-30T08:32:17;19.50;71.50
75719;DHT22;64340;48.534;-3.036;2023-07-30T08:34:43;19.50;71.30
75719;DHT22;64340;48.534;-3.036;2023-07-30T08:37:20;19.50;71.40
75719;DHT22;64340;48.534;-3.036;2023-07-30T08:39:51;19.50;71.30
75719;DHT22;64340;48.534;-3.036;2023-07-30T08:42:26;19.50;71.50
75719;DHT22;64340;48.534;-3.036;2023-07-30T08:44:54;19.70;70.50
75719;DHT22;64340;48.534;-3.036;2023-07-30T08:47:22;19.70;70.70
75719;DHT22;64340;48.534;-3.036;2023-07-30T08:49:48;19.80;70.70
75719;DHT22;64340;48.534;-3.036;2023-07-30T08:52:24;19.90;71.30
75719;DHT22;64340;48.534;-3.036;2023-07-30T08:54:50;19.90;71.00
75719;DHT22;64340;48.534;-3.036;2023-07-30T08:57:30;20.00;70.90
75719;DHT22;64340;48.534;-3.036;2023-07-30T09:00:14;20.00;71.10
75719;DHT22;64340;48.534;-3.036;2023-07-30T09:02:56;20.10;70.90
75719;DHT22;64340;48.534;-3.036;2023-07-30T09:05:33;20.10;71.20
75719;DHT22;64340;48.534;-3.036;2023-07-30T09:07:58;20.10;71.20
75719;DHT22;64340;48.534;-3.036;2023-07-30T09:10:25;20.20;71.70
75719;DHT22;64340;48.534;-3.036;2023-07-30T09:12:56;20.30;71.80
75719;DHT22;64340;48.534;-3.036;2023-07-30T09:15:31;20.20;71.50
75719;DHT22;64340;48.534;-3.036;2023-07-30T09:18:06;20.30;71.20
75719;DHT22;64340;48.534;-3.036;2023-07-30T09:20:45;20.20;71.30
75719;DHT22;64340;48.534;-3.036;2023-07-30T09:23:17;20.30;71.70
75719;DHT22;64340;48.534;-3.036;2023-07-30T09:25:42;20.10;71.30
75719;DHT22;64340;48.534;-3.036;2023-07-30T09:28:13;20.10;71.50
75719;DHT22;64340;48.534;-3.036;2023-07-30T09:30:48;20.20;71.40
75719;DHT22;64340;48.534;-3.036;2023-07-30T09:33:18;20.20;71.00
75719;DHT22;64340;48.534;-3.036;2023-07-30T09:35:52;20.30;70.70
75719;DHT22;64340;48.534;-3.036;2023-07-30T09:38:23;20.30;70.70
75719;DHT22;64340;48.534;-3.036;2023-07-30T09:41:16;20.30;70.60
75719;DHT22;64340;48.534;-3.036;2023-07-30T09:46:46;20.40;70.40
75719;DHT22;64340;48.534;-3.036;2023-07-30T09:49:26;20.40;70.50
75719;DHT22;64340;48.534;-3.036;2023-07-30T09:52:00;20.50;70.30
75719;DHT22;64340;48.534;-3.036;2023-07-30T09:54:32;20.50;70.30
75719;DHT22;64340;48.534;-3.036;2023-07-30T09:57:01;20.50;70.40
75719;DHT22;64340;48.534;-3.036;2023-07-30T09:59:34;20.50;70.50
75719;DHT22;64340;48.534;-3.036;2023-07-30T10:02:13;20.50;70.20
75719;DHT22;64340;48.534;-3.036;2023-07-30T10:04:50;20.60;70.30
75719;DHT22;64340;48.534;-3.036;2023-07-30T10:08:05;20.50;70.20
75719;DHT22;64340;48.534;-3.036;2023-07-30T10:10:41;20.60;70.20
75719;DHT22;64340;48.534;-3.036;2023-07-30T10:13:20;20.60;70.30
75719;DHT22;64340;48.534;-3.036;2023-07-30T10:15:50;20.60;70.10
75719;DHT22;64340;48.534;-3.036;2023-07-30T10:18:25;20.60;70.20
75719;DHT22;64340;48.534;-3.036;2023-07-30T10:20:56;20.60;70.30
75719;DHT22;64340;48.534;-3.036;2023-07-30T10:23:32;20.60;70.30
75719;DHT22;64340;48.534;-3.036;2023-07-30T10:26:06;20.60;70.30
75719;DHT22;64340;48.534;-3.036;2023-07-30T10:28:43;20.60;70.20
75719;DHT22;64340;48.534;-3.036;2023-07-30T10:31:15;20.60;70.20
75719;DHT22;64340;48.534;-3.036;2023-07-30T10:33:52;20.70;69.90
75719;DHT22;64340;48.534;-3.036;2023-07-30T10:36:32;20.70;69.90
75719;DHT22;64340;48.534;-3.036;2023-07-30T10:39:41;20.70;69.50
75719;DHT22;64340;48.534;-3.036;2023-07-30T10:41:51;20.60;69.80
75719;DHT22;64340;48.534;-3.036;2023-07-30T10:44:22;20.50;70.20
75719;DHT22;64340;48.534;-3.036;2023-07-30T10:46:50;20.50;71.20
75719;DHT22;64340;48.534;-3.036;2023-07-30T10:49:17;20.40;72.30
75719;DHT22;64340;48.534;-3.036;2023-07-30T10:51:43;20.50;72.10
75719;DHT22;64340;48.534;-3.036;2023-07-30T10:54:11;20.50;71.60
75719;DHT22;64340;48.534;-3.036;2023-07-30T10:56:39;20.50;71.60
75719;DHT22;64340;48.534;-3.036;2023-07-30T10:59:06;20.50;70.60
75719;DHT22;64340;48.534;-3.036;2023-07-30T11:01:39;20.60;69.80
75719;DHT22;64340;48.534;-3.036;2023-07-30T11:04:08;20.60;70.30
75719;DHT22;64340;48.534;-3.036;2023-07-30T11:06:34;20.80;70.90
75719;DHT22;64340;48.534;-3.036;2023-07-30T11:09:05;20.70;70.60
75719;DHT22;64340;48.534;-3.036;2023-07-30T11:11:31;20.70;70.90
75719;DHT22;64340;48.534;-3.036;2023-07-30T11:13:57;20.70;71.10
75719;DHT22;64340;48.534;-3.036;2023-07-30T11:16:23;20.70;71.20
75719;DHT22;64340;48.534;-3.036;2023-07-30T11:18:50;20.80;71.10
75719;DHT22;64340;48.534;-3.036;2023-07-30T11:21:17;20.80;71.20
75719;DHT22;64340;48.534;-3.036;2023-07-30T11:23:44;20.90;71.00
75719;DHT22;64340;48.534;-3.036;2023-07-30T11:26:17;20.90;70.40
75719;DHT22;64340;48.534;-3.036;2023-07-30T11:28:45;21.00;70.60
75719;DHT22;64340;48.534;-3.036;2023-07-30T11:31:18;21.00;70.90
75719;DHT22;64340;48.534;-3.036;2023-07-30T11:33:48;21.00;70.60
75719;DHT22;64340;48.534;-3.036;2023-07-30T11:36:18;21.10;70.10
75719;DHT22;64340;48.534;-3.036;2023-07-30T11:38:44;21.10;69.80
75719;DHT22;64340;48.534;-3.036;2023-07-30T11:41:10;21.10;70.10
75719;DHT22;64340;48.534;-3.036;2023-07-30T11:43:38;21.10;70.50
75719;DHT22;64340;48.534;-3.036;2023-07-30T11:46:09;21.10;70.80
75719;DHT22;64340;48.534;-3.036;2023-07-30T11:48:35;21.10;70.50
75719;DHT22;64340;48.534;-3.036;2023-07-30T11:51:04;21.10;70.50
75719;DHT22;64340;48.534;-3.036;2023-07-30T11:53:51;21.10;70.60
75719;DHT22;64340;48.534;-3.036;2023-07-30T11:56:21;21.10;70.80
75719;DHT22;64340;48.534;-3.036;2023-07-30T11:58:49;21.10;70.50
75719;DHT22;64340;48.534;-3.036;2023-07-30T12:01:16;21.10;70.50
75719;DHT22;64340;48.534;-3.036;2023-07-30T12:03:48;21.10;70.40
75719;DHT22;64340;48.534;-3.036;2023-07-30T12:08:58;21.10;69.70
75719;DHT22;64340;48.534;-3.036;2023-07-30T12:11:31;21.10;69.70
75719;DHT22;64340;48.534;-3.036;2023-07-30T12:14:02;21.10;69.70
75719;DHT22;64340;48.534;-3.036;2023-07-30T12:16:31;21.10;69.50
75719;DHT22;64340;48.534;-3.036;2023-07-30T12:18:57;21.10;69.50
75719;DHT22;64340;48.534;-3.036;2023-07-30T12:21:30;21.10;69.50
75719;DHT22;64340;48.534;-3.036;2023-07-30T12:23:59;21.10;69.70
75719;DHT22;64340;48.534;-3.036;2023-07-30T12:26:31;21.20;69.70
75719;DHT22;64340;48.534;-3.036;2023-07-30T12:28:59;21.30;69.50
75719;DHT22;64340;48.534;-3.036;2023-07-30T12:31:41;21.20;69.30
75719;DHT22;64340;48.534;-3.036;2023-07-30T12:34:12;21.30;69.30
75719;DHT22;64340;48.534;-3.036;2023-07-30T12:36:49;21.30;69.20
75719;DHT22;64340;48.534;-3.036;2023-07-30T12:39:17;21.20;69.20
75719;DHT22;64340;48.534;-3.036;2023-07-30T12:41:50;21.10;69.20
75719;DHT22;64340;48.534;-3.036;2023-07-30T12:44:19;21.10;69.30
75719;DHT22;64340;48.534;-3.036;2023-07-30T12:46:47;21.10;69.30
75719;DHT22;64340;48.534;-3.036;2023-07-30T12:49:22;21.10;69.10
75719;DHT22;64340;48.534;-3.036;2023-07-30T12:51:54;21.10;69.00
75719;DHT22;64340;48.534;-3.036;2023-07-30T12:54:22;21.20;69.00
75719;DHT22;64340;48.534;-3.036;2023-07-30T12:56:56;21.20;69.00
75719;DHT22;64340;48.534;-3.036;2023-07-30T12:59:24;21.20;69.00
75719;DHT22;64340;48.534;-3.036;2023-07-30T13:01:53;21.20;69.00
75719;DHT22;64340;48.534;-3.036;2023-07-30T13:04:24;21.20;69.00
75719;DHT22;64340;48.534;-3.036;2023-07-30T13:07:00;21.30;68.90
75719;DHT22;64340;48.534;-3.036;2023-07-30T13:09:25;21.20;68.50
75719;DHT22;64340;48.534;-3.036;2023-07-30T13:11:54;21.20;68.80
75719;DHT22;64340;48.534;-3.036;2023-07-30T13:14:23;21.20;68.90
75719;DHT22;64340;48.534;-3.036;2023-07-30T13:16:49;21.10;69.00
75719;DHT22;64340;48.534;-3.036;2023-07-30T13:19:26;21.10;69.00
75719;DHT22;64340;48.534;-3.036;2023-07-30T13:21:53;21.20;69.20
75719;DHT22;64340;48.534;-3.036;2023-07-30T13:24:24;21.10;69.00
75719;DHT22;64340;48.534;-3.036;2023-07-30T13:26:56;21.10;69.10
75719;DHT22;64340;48.534;-3.036;2023-07-30T13:29:31;21.30;69.00
75719;DHT22;64340;48.534;-3.036;2023-07-30T13:31:57;21.30;69.00
75719;DHT22;64340;48.534;-3.036;2023-07-30T13:34:34;21.30;68.90
75719;DHT22;64340;48.534;-3.036;2023-07-30T13:37:00;21.40;69.20
75719;DHT22;64340;48.534;-3.036;2023-07-30T13:39:34;21.50;69.30
75719;DHT22;64340;48.534;-3.036;2023-07-30T13:42:00;21.50;68.60
75719;DHT22;64340;48.534;-3.036;2023-07-30T13:44:32;21.50;68.90
75719;DHT22;64340;48.534;-3.036;2023-07-30T13:46:58;21.50;69.10
75719;DHT22;64340;48.534;-3.036;2023-07-30T13:49:33;21.50;69.10
75719;DHT22;64340;48.534;-3.036;2023-07-30T13:52:01;21.50;68.20
75719;DHT22;64340;48.534;-3.036;2023-07-30T13:54:31;21.50;67.80
75719;DHT22;64340;48.534;-3.036;2023-07-30T13:57:03;21.50;68.00
75719;DHT22;64340;48.534;-3.036;2023-07-30T13:59:34;21.50;68.20
75719;DHT22;64340;48.534;-3.036;2023-07-30T14:02:06;21.50;68.20
75719;DHT22;64340;48.534;-3.036;2023-07-30T14:04:45;21.50;68.30
75719;DHT22;64340;48.534;-3.036;2023-07-30T14:07:14;21.50;68.20
75719;DHT22;64340;48.534;-3.036;2023-07-30T14:09:40;21.50;68.40
75719;DHT22;64340;48.534;-3.036;2023-07-30T14:12:06;21.50;68.40
75719;DHT22;64340;48.534;-3.036;2023-07-30T14:14:32;21.50;68.50
75719;DHT22;64340;48.534;-3.036;2023-07-30T14:16:58;21.50;67.70
75719;DHT22;64340;48.534;-3.036;2023-07-30T14:19:25;21.50;67.70
75719;DHT22;64340;48.534;-3.036;2023-07-30T14:22:06;21.50;67.50
75719;DHT22;64340;48.534;-3.036;2023-07-30T14:24:33;21.60;66.50
75719;DHT22;64340;48.534;-3.036;2023-07-30T14:27:08;21.50;65.90
75719;DHT22;64340;48.534;-3.036;2023-07-30T14:29:42;21.50;66.40
75719;DHT22;64340;48.534;-3.036;2023-07-30T14:32:16;21.60;66.80
75719;DHT22;64340;48.534;-3.036;2023-07-30T14:34:57;21.60;67.20
75719;DHT22;64340;48.534;-3.036;2023-07-30T14:37:29;21.70;67.30
75719;DHT22;64340;48.534;-3.036;2023-07-30T14:39:57;21.70;67.10
75719;DHT22;64340;48.534;-3.036;2023-07-30T14:42:33;21.70;67.10
75719;DHT22;64340;48.534;-3.036;2023-07-30T14:44:59;21.70;67.30
75719;DHT22;64340;48.534;-3.036;2023-07-30T14:47:24;21.70;67.30
75719;DHT22;64340;48.534;-3.036;2023-07-30T14:49:56;21.70;66.90
75719;DHT22;64340;48.534;-3.036;2023-07-30T14:52:24;21.70;66.40
75719;DHT22;64340;48.534;-3.036;2023-07-30T14:54:53;21.70;66.50
75719;DHT22;64340;48.534;-3.036;2023-07-30T14:57:19;21.70;66.20
75719;DHT22;64340;48.534;-3.036;2023-07-30T14:59:47;21.70;66.20
75719;DHT22;64340;48.534;-3.036;2023-07-30T15:02:18;21.80;65.90
75719;DHT22;64340;48.534;-3.036;2023-07-30T15:04:43;21.90;65.70
75719;DHT22;64340;48.534;-3.036;2023-07-30T15:07:12;21.90;65.90
75719;DHT22;64340;48.534;-3.036;2023-07-30T15:09:41;21.90;66.20
75719;DHT22;64340;48.534;-3.036;2023-07-30T15:12:09;22.00;66.40
75719;DHT22;64340;48.534;-3.036;2023-07-30T15:14:40;22.00;66.30
75719;DHT22;64340;48.534;-3.036;2023-07-30T15:17:06;22.00;66.50
75719;DHT22;64340;48.534;-3.036;2023-07-30T15:19:35;21.90;66.00
75719;DHT22;64340;48.534;-3.036;2023-07-30T15:22:01;21.90;65.50
75719;DHT22;64340;48.534;-3.036;2023-07-30T15:24:26;21.90;65.90
75719;DHT22;64340;48.534;-3.036;2023-07-30T15:26:52;21.90;65.40
75719;DHT22;64340;48.534;-3.036;2023-07-30T15:29:18;21.90;65.90
75719;DHT22;64340;48.534;-3.036;2023-07-30T15:31:44;21.90;66.00
75719;DHT22;64340;48.534;-3.036;2023-07-30T15:34:12;21.90;65.80
75719;DHT22;64340;48.534;-3.036;2023-07-30T15:36:39;21.90;65.80